createdAt,value
2022-09-26T00:02:06.076Z,5.10
2022-09-26T00:04:34.527Z,5.80
2022-09-26T00:07:09.042Z,4.73
2022-09-26T00:09:39.367Z,7.30
2022-09-26T00:12:17.155Z,4.83
2022-09-26T00:14:45.180Z,3.20
2022-09-26T00:17:20.039Z,4.93
2022-09-26T00:19:48.135Z,4.47
2022-09-26T00:22:23.068Z,5.27
2022-09-26T00:24:53.628Z,3.70
2022-09-26T00:27:30.271Z,7.07
2022-09-26T00:29:58.317Z,5.13
2022-09-26T00:32:40.246Z,4.17
2022-09-26T00:35:27.096Z,5.80
2022-09-26T00:38:02.116Z,4.73
2022-09-26T00:40:31.247Z,3.50
2022-09-26T00:43:07.104Z,4.90
2022-09-26T00:45:35.393Z,3.37
2022-09-26T00:48:13.246Z,4.53
2022-09-26T00:50:43.112Z,3.17
2022-09-26T00:53:22.117Z,4.73
2022-09-26T00:55:57.954Z,5.43
2022-09-26T00:58:38.087Z,6.20
2022-09-26T01:01:07.806Z,5.13
2022-09-26T01:03:44.132Z,5.07
2022-09-26T01:06:12.816Z,5.97
2022-09-26T01:08:52.098Z,6.13
2022-09-26T01:11:23.540Z,3.50
2022-09-26T01:14:02.114Z,5.17
2022-09-26T01:16:31.241Z,5.33
2022-09-26T01:19:06.250Z,6.73
2022-09-26T01:21:56.333Z,3.27
2022-09-26T01:24:49.138Z,5.33
2022-09-26T01:27:44.931Z,3.63
2022-09-26T01:30:23.299Z,6.30
2022-09-26T01:33:29.093Z,4.23
2022-09-26T01:36:32.143Z,4.27
2022-09-26T01:39:15.055Z,6.57
2022-09-26T01:41:58.148Z,4.50
2022-09-26T01:44:34.450Z,6.13
2022-09-26T01:47:18.163Z,5.00
2022-09-26T01:49:53.906Z,5.00
2022-09-26T01:52:38.152Z,6.07
2022-09-26T01:55:11.243Z,4.77
2022-09-26T01:57:51.143Z,4.17
2022-09-26T02:00:20.239Z,5.50
2022-09-26T02:02:57.161Z,4.43
2022-09-26T02:05:32.904Z,4.10
2022-09-26T02:08:14.158Z,4.53
2022-09-26T02:10:47.897Z,6.30
2022-09-26T02:13:28.154Z,4.83
2022-09-26T02:16:00.029Z,5.80
2022-09-26T02:18:41.649Z,7.10
2022-09-26T02:21:14.279Z,5.90
2022-09-26T02:23:49.192Z,6.63
2022-09-26T02:26:17.575Z,4.80
2022-09-26T02:28:53.199Z,4.73
2022-09-26T02:31:27.491Z,6.87
2022-09-26T02:34:11.205Z,6.03
2022-09-26T02:36:39.780Z,4.90
2022-09-26T02:39:14.315Z,6.17
2022-09-26T02:41:49.778Z,6.73
2022-09-26T02:44:41.186Z,5.87
2022-09-26T02:47:39.766Z,7.60
2022-09-26T02:50:42.196Z,7.97
2022-09-26T02:53:22.255Z,7.30
2022-09-26T02:56:10.243Z,7.40
2022-09-26T02:58:49.916Z,8.73
2022-09-26T03:01:31.238Z,6.43
2022-09-26T03:04:06.876Z,9.90
2022-09-26T03:06:46.401Z,8.60
2022-09-26T03:09:16.387Z,8.27
2022-09-26T03:11:52.212Z,8.93
2022-09-26T03:14:21.158Z,10.40
2022-09-26T03:16:57.183Z,8.90
2022-09-26T03:19:31.035Z,11.03
2022-09-26T03:22:09.236Z,9.70
2022-09-26T03:24:38.425Z,9.43
2022-09-26T03:27:13.242Z,8.83
2022-09-26T03:29:41.893Z,6.60
2022-09-26T03:32:23.226Z,8.60
2022-09-26T03:34:58.101Z,11.03
2022-09-26T03:37:34.439Z,5.90
2022-09-26T03:40:03.711Z,7.17
2022-09-26T03:42:40.751Z,12.00
2022-09-26T03:45:11.563Z,7.50
2022-09-26T03:47:49.718Z,7.73
2022-09-26T03:50:18.083Z,5.77
2022-09-26T03:52:54.243Z,5.63
2022-09-26T03:55:22.440Z,5.60
2022-09-26T03:57:57.258Z,7.60
2022-09-26T04:00:25.329Z,6.87
2022-09-26T04:03:00.248Z,4.67
2022-09-26T04:05:29.586Z,5.83
2022-09-26T04:08:09.302Z,4.73
2022-09-26T04:10:37.414Z,5.53
2022-09-26T04:13:05.458Z,6.03
2022-09-26T04:15:40.266Z,5.43
2022-09-26T04:18:08.378Z,8.03
2022-09-26T04:20:43.253Z,4.30
2022-09-26T04:23:13.558Z,4.80
2022-09-26T04:25:48.427Z,7.87
2022-09-26T04:28:16.980Z,5.27
2022-09-26T04:30:51.298Z,3.60
2022-09-26T04:33:25.702Z,7.37
2022-09-26T04:36:08.269Z,5.03
2022-09-26T04:38:38.048Z,4.47
2022-09-26T04:41:14.318Z,4.20
2022-09-26T04:43:42.942Z,4.20
2022-09-26T04:46:22.248Z,8.00
2022-09-26T04:48:52.546Z,6.53
2022-09-26T04:51:28.292Z,4.57
2022-09-26T04:53:58.283Z,4.63
2022-09-26T04:56:34.270Z,2.90
2022-09-26T04:59:02.497Z,5.83
2022-09-26T05:01:37.422Z,2.90
2022-09-26T05:04:05.648Z,2.80
2022-09-26T05:06:40.288Z,3.67
2022-09-26T05:09:09.837Z,4.43
2022-09-26T05:11:44.307Z,6.10
2022-09-26T05:14:12.408Z,5.23
2022-09-26T05:16:47.540Z,5.40
2022-09-26T05:19:16.102Z,6.03
2022-09-26T05:21:50.323Z,5.43
2022-09-26T05:24:38.486Z,7.23
2022-09-26T05:27:14.320Z,5.33
2022-09-26T05:29:42.419Z,4.17
2022-09-26T05:32:20.360Z,6.27
2022-09-26T05:34:56.143Z,5.23
2022-09-26T05:37:30.346Z,3.20
2022-09-26T05:40:16.900Z,3.77
2022-09-26T05:42:51.354Z,5.43
2022-09-26T05:45:20.019Z,3.97
2022-09-26T05:47:55.335Z,4.73
2022-09-26T05:50:25.111Z,3.77
2022-09-26T05:52:59.340Z,4.87
2022-09-26T05:55:30.059Z,5.10
2022-09-26T05:58:06.415Z,2.87
2022-09-26T06:00:36.000Z,3.00
2022-09-26T06:03:11.354Z,2.67
2022-09-26T06:05:39.411Z,4.60
2022-09-26T06:08:14.406Z,3.97
2022-09-26T06:10:43.901Z,3.43
2022-09-26T06:13:21.367Z,4.60
2022-09-26T06:15:50.128Z,5.27
2022-09-26T06:18:24.368Z,4.73
2022-09-26T06:20:52.588Z,2.80
2022-09-26T06:23:20.737Z,3.53
2022-09-26T06:25:56.368Z,4.90
2022-09-26T06:28:24.447Z,5.13
2022-09-26T06:30:59.386Z,3.70
2022-09-26T06:33:40.427Z,3.30
2022-09-26T06:36:10.390Z,3.10
2022-09-26T06:38:45.371Z,3.80
2022-09-26T06:41:23.433Z,4.00
2022-09-26T06:43:51.856Z,4.37
2022-09-26T06:46:27.478Z,3.90
2022-09-26T06:48:55.720Z,5.90
2022-09-26T06:51:30.473Z,7.37
2022-09-26T06:54:00.635Z,3.87
2022-09-26T06:56:36.425Z,5.80
2022-09-26T06:59:04.494Z,3.10
2022-09-26T07:01:39.511Z,3.50
2022-09-26T07:04:07.804Z,4.53
2022-09-26T07:06:43.437Z,4.83
2022-09-26T07:09:12.668Z,3.00
2022-09-26T07:14:41.751Z,4.40
2022-09-26T07:17:24.434Z,6.03
2022-09-26T07:19:53.555Z,5.57
2022-09-26T07:22:28.420Z,4.00
2022-09-26T07:24:56.768Z,6.93
2022-09-26T07:27:33.561Z,4.20
2022-09-26T07:30:02.135Z,5.13
2022-09-26T07:32:44.441Z,6.20
2022-09-26T07:35:19.475Z,3.03
2022-09-26T07:37:58.464Z,5.77
2022-09-26T07:40:27.490Z,2.90
2022-09-26T07:43:19.515Z,5.67
2022-09-26T07:46:09.238Z,4.07
2022-09-26T07:49:01.453Z,5.37
2022-09-26T07:51:31.413Z,4.30
2022-09-26T07:54:06.620Z,4.30
2022-09-26T07:56:34.913Z,7.90
2022-09-26T07:59:05.313Z,3.93
2022-09-26T08:01:44.594Z,7.10
2022-09-26T08:04:13.425Z,4.73
2022-09-26T08:06:48.477Z,5.40
2022-09-26T08:09:16.725Z,7.60
2022-09-26T08:11:51.499Z,6.27
2022-09-26T08:14:23.367Z,5.53
2022-09-26T08:17:02.504Z,5.80
2022-09-26T08:19:30.596Z,6.10
2022-09-26T08:22:05.523Z,4.73
2022-09-26T08:24:33.641Z,3.00
2022-09-26T08:27:08.518Z,3.30
2022-09-26T08:29:38.345Z,4.40
2022-09-26T08:32:12.525Z,4.40
2022-09-26T08:34:47.179Z,4.87
2022-09-26T08:37:24.878Z,3.60
2022-09-26T08:39:53.466Z,3.97
2022-09-26T08:42:40.497Z,4.43
2022-09-26T08:46:00.520Z,4.80
2022-09-26T08:48:44.116Z,4.67
2022-09-26T08:51:29.463Z,3.90
2022-09-26T08:54:06.018Z,2.80
2022-09-26T08:56:44.724Z,4.97
2022-09-26T08:59:25.566Z,5.97
2022-09-26T09:02:06.717Z,3.50
2022-09-26T09:04:42.116Z,6.67
2022-09-26T09:07:25.580Z,3.60
2022-09-26T09:10:01.435Z,5.73
2022-09-26T09:12:48.581Z,10.03
2022-09-26T09:15:28.945Z,3.67
2022-09-26T09:18:15.551Z,4.63
2022-09-26T09:20:55.306Z,4.73
2022-09-26T09:23:59.720Z,3.83
2022-09-26T09:30:15.753Z,6.27
2022-09-26T09:33:10.561Z,7.23
2022-09-26T09:35:51.578Z,6.40
2022-09-26T09:38:23.524Z,6.97
2022-09-26T09:41:05.696Z,5.50
2022-09-26T09:43:38.611Z,6.67
2022-09-26T09:46:20.589Z,6.93
2022-09-26T09:48:55.560Z,4.83
2022-09-26T09:51:38.360Z,6.43
2022-09-26T09:54:30.559Z,6.90
2022-09-26T09:57:28.594Z,7.03
2022-09-26T10:00:09.565Z,4.03
2022-09-26T10:02:50.763Z,4.27
2022-09-26T10:05:26.290Z,5.70
2022-09-26T10:08:05.609Z,5.83
2022-09-26T10:10:47.610Z,6.53
2022-09-26T10:13:17.909Z,4.80
2022-09-26T10:16:04.639Z,4.07
2022-09-26T10:18:33.752Z,7.20
2022-09-26T10:21:15.561Z,4.27
2022-09-26T10:23:49.338Z,5.63
2022-09-26T10:26:31.566Z,3.50
2022-09-26T10:29:01.293Z,6.87
2022-09-26T10:31:42.836Z,3.57
2022-09-26T10:34:25.245Z,8.47
2022-09-26T10:37:00.624Z,5.33
2022-09-26T10:39:48.985Z,4.30
2022-09-26T10:42:31.511Z,5.87
2022-09-26T10:45:14.160Z,5.03
2022-09-26T10:47:54.745Z,4.30
2022-09-26T10:50:26.192Z,3.77
2022-09-26T10:53:04.597Z,3.80
2022-09-26T10:55:40.274Z,3.73
2022-09-26T10:58:16.634Z,3.77
2022-09-26T11:00:46.305Z,5.43
2022-09-26T11:03:23.709Z,3.30
2022-09-26T11:05:58.224Z,6.17
2022-09-26T11:08:36.044Z,5.33
2022-09-26T11:11:18.649Z,4.10
2022-09-26T11:13:50.063Z,6.20
2022-09-26T11:16:26.680Z,4.23
2022-09-26T11:19:04.218Z,6.50
2022-09-26T11:21:48.648Z,4.80
2022-09-26T11:24:23.308Z,6.17
2022-09-26T11:27:11.626Z,5.90
2022-09-26T11:29:45.517Z,6.67
2022-09-26T11:32:24.639Z,7.80
2022-09-26T11:35:03.176Z,5.77
2022-09-26T11:38:09.650Z,5.13
2022-09-26T11:40:59.925Z,4.77
2022-09-26T11:43:51.734Z,12.07
2022-09-26T11:46:46.602Z,6.60
2022-09-26T11:49:43.667Z,7.53
2022-09-26T11:52:29.723Z,3.30
2022-09-26T11:55:15.673Z,4.87
2022-09-26T11:57:53.755Z,4.37
2022-09-26T12:00:34.658Z,5.27
2022-09-26T12:03:27.980Z,4.60
2022-09-26T12:06:08.837Z,6.03
2022-09-26T12:08:50.824Z,5.13
2022-09-26T12:11:36.687Z,6.87
2022-09-26T12:14:16.425Z,3.83
2022-09-26T12:16:59.692Z,4.57
2022-09-26T12:19:35.784Z,5.63
2022-09-26T12:22:36.860Z,6.33
2022-09-26T12:25:25.872Z,3.17
2022-09-26T12:28:15.704Z,5.17
2022-09-26T12:30:54.404Z,5.13
2022-09-26T12:33:49.788Z,3.93
2022-09-26T12:36:40.504Z,5.40
2022-09-26T12:39:28.728Z,8.13
2022-09-26T12:42:12.394Z,4.23
2022-09-26T12:45:03.723Z,6.90
2022-09-26T12:48:00.437Z,5.50
2022-09-26T12:50:47.734Z,5.53
2022-09-26T12:53:44.703Z,4.27
2022-09-26T12:56:28.727Z,4.60
2022-09-26T12:59:09.070Z,4.90
2022-09-26T13:02:06.860Z,4.47
2022-09-26T13:05:02.363Z,6.77
2022-09-26T13:07:48.783Z,6.33
2022-09-26T13:10:38.029Z,5.57
2022-09-26T13:13:40.746Z,5.13
2022-09-26T13:16:23.841Z,6.40
2022-09-26T13:19:02.821Z,2.60
2022-09-26T13:21:42.117Z,4.53
2022-09-26T13:24:24.740Z,4.10
2022-09-26T13:27:00.582Z,5.10
2022-09-26T13:29:39.747Z,3.87
2022-09-26T13:32:17.559Z,3.57
2022-09-26T13:35:03.897Z,4.03
2022-09-26T13:37:42.520Z,3.07
2022-09-26T13:40:34.077Z,4.33
2022-09-26T13:43:24.202Z,3.80
2022-09-26T13:46:08.831Z,3.80
2022-09-26T13:48:50.104Z,4.57
2022-09-26T13:51:31.772Z,4.33
2022-09-26T13:54:11.540Z,3.60
2022-09-26T13:57:02.777Z,3.63
2022-09-26T13:59:51.475Z,3.13
2022-09-26T14:02:30.840Z,3.90
2022-09-26T14:05:30.159Z,2.97
2022-09-26T14:08:21.792Z,4.17
2022-09-26T14:10:54.981Z,4.00
2022-09-26T14:13:41.813Z,3.00
2022-09-26T14:16:34.726Z,3.00
2022-09-26T14:19:14.807Z,3.43
2022-09-26T14:21:46.433Z,3.07
2022-09-26T14:24:43.867Z,3.20
2022-09-26T14:27:29.801Z,3.20
2022-09-26T14:30:14.872Z,3.80
2022-09-26T14:32:46.971Z,6.57
2022-09-26T14:35:34.813Z,2.70
2022-09-26T14:38:05.429Z,4.20
2022-09-26T14:40:42.854Z,3.13
2022-09-26T14:43:15.863Z,3.20
2022-09-26T14:45:56.858Z,3.03
2022-09-26T14:48:41.878Z,3.43
2022-09-26T14:51:31.832Z,4.23
2022-09-26T14:54:02.599Z,4.87
2022-09-26T14:56:53.929Z,5.40
2022-09-26T14:59:39.563Z,3.50
2022-09-26T15:02:40.988Z,3.17
2022-09-26T15:05:25.765Z,2.23
2022-09-26T15:08:01.816Z,2.20
2022-09-26T15:10:40.201Z,2.47
2022-09-26T15:13:30.844Z,4.00
2022-09-26T15:16:14.223Z,2.60
2022-09-26T15:18:55.156Z,3.20
2022-09-26T15:21:32.894Z,2.10
2022-09-26T15:24:11.862Z,3.43
2022-09-26T15:26:39.925Z,3.33
2022-09-26T15:29:09.928Z,2.40
2022-09-26T15:31:46.903Z,2.33
2022-09-26T15:34:25.069Z,2.87
2022-09-26T15:37:08.866Z,2.80
2022-09-26T15:39:48.889Z,3.73
2022-09-26T15:42:46.402Z,1.80
2022-09-26T15:45:40.880Z,1.33
2022-09-26T15:48:28.991Z,1.60
2022-09-26T15:51:11.873Z,1.97
2022-09-26T15:53:44.331Z,2.27
2022-09-26T15:56:21.926Z,2.20
2022-09-26T15:58:54.545Z,2.50
2022-09-26T16:01:33.040Z,2.37
2022-09-26T16:04:02.538Z,1.40
2022-09-26T16:06:41.941Z,2.27
2022-09-26T16:09:19.918Z,2.07
2022-09-26T16:11:57.890Z,2.13
2022-09-26T16:14:30.690Z,2.80
2022-09-26T16:17:13.054Z,8.73
2022-09-26T16:19:46.167Z,7.03
2022-09-26T16:22:52.929Z,7.93
2022-09-26T16:25:27.782Z,3.70
2022-09-26T16:28:09.944Z,10.87
2022-09-26T16:30:43.172Z,10.10
2022-09-26T16:33:37.939Z,3.50
2022-09-26T16:36:22.208Z,9.03
2022-09-26T16:39:03.947Z,3.43
2022-09-26T16:44:36.684Z,3.60
2022-09-26T16:47:06.790Z,3.77
2022-09-26T16:49:53.055Z,2.33
2022-09-26T16:52:29.574Z,2.57
2022-09-26T16:55:07.015Z,4.43
2022-09-26T16:57:38.614Z,3.43
2022-09-26T17:00:38.968Z,4.73
2022-09-26T17:03:22.069Z,4.07
2022-09-26T17:05:56.994Z,3.20
2022-09-26T17:08:26.437Z,3.67
2022-09-26T17:11:04.998Z,4.17
2022-09-26T17:13:36.459Z,3.00
2022-09-26T17:16:12.080Z,4.10
2022-09-26T17:18:44.381Z,6.07
2022-09-26T17:21:19.998Z,6.60
2022-09-26T17:23:48.966Z,4.00
2022-09-26T17:26:27.993Z,4.63
2022-09-26T17:28:58.075Z,5.03
2022-09-26T17:31:34.143Z,6.50
2022-09-26T17:34:23.964Z,5.57
2022-09-26T17:36:58.995Z,6.17
2022-09-26T17:39:27.505Z,7.30
2022-09-26T17:42:06.027Z,5.27
2022-09-26T17:44:37.064Z,6.83
2022-09-26T17:47:13.994Z,7.43
2022-09-26T17:49:45.400Z,5.77
2022-09-26T17:52:32.190Z,9.37
2022-09-26T17:55:03.000Z,7.60
2022-09-26T17:57:45.546Z,7.73
2022-09-26T18:00:18.051Z,11.90
2022-09-26T18:02:55.074Z,10.33
2022-09-26T18:05:26.373Z,10.83
2022-09-26T18:08:05.013Z,7.27
2022-09-26T18:10:37.088Z,9.17
2022-09-26T18:13:18.067Z,11.87
2022-09-26T18:15:46.262Z,11.60
2022-09-26T18:18:25.242Z,13.37
2022-09-26T18:20:54.667Z,12.10
2022-09-26T18:23:32.106Z,10.07
2022-09-26T18:26:00.512Z,11.27
2022-09-26T18:28:52.032Z,14.10
2022-09-26T18:31:34.512Z,28.70
2022-09-26T18:34:10.090Z,12.20
2022-09-26T18:36:45.436Z,15.07
2022-09-26T18:39:20.096Z,11.80
2022-09-26T18:41:51.946Z,13.37
2022-09-26T18:44:28.091Z,8.27
2022-09-26T18:47:01.713Z,10.87
2022-09-26T18:49:41.177Z,14.80
2022-09-26T18:52:17.058Z,9.83
2022-09-26T18:54:53.113Z,9.33
2022-09-26T18:57:41.874Z,10.37
2022-09-26T19:00:19.115Z,12.90
2022-09-26T19:02:50.264Z,10.67
2022-09-26T19:05:25.146Z,12.00
2022-09-26T19:07:53.498Z,9.90
2022-09-26T19:10:30.167Z,15.50
2022-09-26T19:12:59.080Z,14.17
2022-09-26T19:15:35.165Z,10.63
2022-09-26T19:18:03.372Z,12.23
2022-09-26T19:20:40.117Z,10.13
2022-09-26T19:23:10.097Z,12.30
2022-09-26T19:25:45.178Z,9.73
2022-09-26T19:28:18.664Z,9.20
2022-09-26T19:30:55.266Z,5.77
2022-09-26T19:33:24.116Z,8.67
2022-09-26T19:36:12.159Z,6.93
2022-09-26T19:38:40.390Z,7.17
2022-09-26T19:41:15.220Z,6.20
2022-09-26T19:43:43.361Z,7.57
2022-09-26T19:46:24.161Z,6.63
2022-09-26T19:48:52.376Z,9.93
2022-09-26T19:51:29.134Z,8.33
2022-09-26T19:53:57.450Z,8.47
2022-09-26T19:56:33.104Z,10.00
2022-09-26T19:59:01.368Z,11.27
2022-09-26T20:01:37.153Z,7.73
2022-09-26T20:04:05.346Z,10.17
2022-09-26T20:06:40.117Z,9.70
2022-09-26T20:09:15.299Z,9.53
2022-09-26T20:11:50.162Z,10.10
2022-09-26T20:14:27.026Z,11.80
2022-09-26T20:17:11.005Z,11.83
2022-09-26T20:19:41.453Z,13.67
2022-09-26T20:22:25.218Z,17.63
2022-09-26T20:25:03.112Z,11.47
2022-09-26T20:27:31.367Z,10.37
2022-09-26T20:30:23.133Z,13.33
2022-09-26T20:32:53.865Z,11.50
2022-09-26T20:35:36.156Z,13.90
2022-09-26T20:38:12.646Z,14.27
2022-09-26T20:40:47.259Z,13.90
2022-09-26T20:43:22.199Z,9.63
2022-09-26T20:45:57.297Z,12.60
2022-09-26T20:48:29.338Z,13.33
2022-09-26T20:51:04.167Z,18.47
2022-09-26T20:53:32.306Z,6.63
2022-09-26T20:56:07.153Z,6.03
2022-09-26T20:58:35.267Z,5.63
2022-09-26T21:01:10.212Z,5.20
2022-09-26T21:03:44.215Z,4.90
2022-09-26T21:06:24.217Z,4.87
2022-09-26T21:08:55.236Z,3.33
2022-09-26T21:11:30.167Z,3.60
2022-09-26T21:13:58.233Z,3.63
2022-09-26T21:16:34.650Z,4.00
2022-09-26T21:19:05.387Z,6.73
2022-09-26T21:21:42.184Z,4.90
2022-09-26T21:24:17.534Z,2.40
2022-09-26T21:26:54.279Z,4.97
2022-09-26T21:29:22.380Z,4.10
2022-09-26T21:32:00.175Z,5.00
2022-09-26T21:34:51.171Z,3.63
2022-09-26T21:37:26.178Z,4.50
2022-09-26T21:39:55.021Z,5.73
2022-09-26T21:42:30.192Z,2.00
2022-09-26T21:45:02.375Z,6.07
2022-09-26T21:47:38.345Z,4.73
2022-09-26T21:50:09.722Z,3.67
2022-09-26T21:52:47.224Z,2.83
2022-09-26T21:55:20.629Z,3.23
2022-09-26T21:57:58.192Z,5.80
2022-09-26T22:00:26.371Z,4.70
2022-09-26T22:03:03.621Z,3.63
2022-09-26T22:05:33.207Z,3.47
2022-09-26T22:08:08.241Z,4.20
2022-09-26T22:10:37.238Z,2.57
2022-09-26T22:13:12.212Z,2.40
2022-09-26T22:15:40.279Z,5.50
2022-09-26T22:18:15.263Z,2.97
2022-09-26T22:20:44.647Z,4.67
2022-09-26T22:23:19.215Z,3.40
2022-09-26T22:25:50.699Z,4.10
2022-09-26T22:28:25.227Z,2.73
2022-09-26T22:30:54.030Z,3.10
2022-09-26T22:33:29.239Z,4.87
2022-09-26T22:36:19.217Z,2.67
2022-09-26T22:38:54.270Z,4.53
2022-09-26T22:41:22.863Z,6.67
2022-09-26T22:43:57.293Z,4.77
2022-09-26T22:46:25.475Z,4.43
2022-09-26T22:49:00.242Z,2.83
2022-09-26T22:51:30.037Z,3.40
2022-09-26T22:54:04.266Z,4.07
2022-09-26T22:56:32.396Z,3.40
2022-09-26T22:59:07.262Z,6.30
2022-09-26T23:01:35.460Z,2.30
2022-09-26T23:04:11.279Z,4.97
2022-09-26T23:06:40.704Z,5.47
2022-09-26T23:09:15.422Z,6.00
2022-09-26T23:11:43.611Z,3.07
2022-09-26T23:14:18.277Z,3.93
2022-09-26T23:16:46.579Z,5.90
2022-09-26T23:19:21.283Z,4.70
2022-09-26T23:21:50.693Z,5.47
2022-09-26T23:24:25.291Z,5.37
2022-09-26T23:26:53.373Z,5.67
2022-09-26T23:29:28.294Z,6.03
2022-09-26T23:31:56.395Z,5.03
2022-09-26T23:34:31.281Z,5.37
2022-09-26T23:37:07.577Z,5.93
2022-09-26T23:39:42.288Z,5.13
2022-09-26T23:42:10.469Z,6.73
2022-09-26T23:44:45.310Z,4.17
2022-09-26T23:47:13.356Z,5.37
2022-09-26T23:49:48.337Z,9.53
2022-09-26T23:52:17.892Z,3.50
2022-09-26T23:54:52.290Z,3.73
2022-09-26T23:57:20.421Z,4.43
2022-09-26T23:59:55.303Z,5.77
